Time;durP1;ratioP1;P1;durP2;ratioP2;P2;SDS_P1;SDS_P2;PMS_P1;PMS_P2;Temp;Humidity;BMP_temperature;BMP_pressure;BME280_temperature;BME280_humidity;BME280_pressure;Samples;Min_cycle;Max_cycle;Signal;HPM_P1;HPM_P2
2022/03/13 00:00:49;;;;;;;;;109.00;86.50;;;;;3.31;32.33;100655.72;4975671;28;11567;-80
2022/03/13 00:03:22;;;;;;;;;115.50;97.50;;;;;3.34;32.41;100660.13;4975482;28;12413;-80
2022/03/13 00:05:54;;;;;;;;;83.75;67.50;;;;;3.33;31.90;100654.09;4942056;28;11661;-83
2022/03/13 00:08:28;;;;;;;;;103.25;83.75;;;;;3.31;32.53;100651.44;5008611;28;10365;-82
2022/03/13 00:10:59;;;;;;;;;95.75;73.50;;;;;3.31;31.78;100642.84;4975981;28;11011;-79
2022/03/13 00:13:31;;;;;;;;;92.75;71.75;;;;;3.32;31.58;100649.75;4990765;28;10266;-81
2022/03/13 00:16:03;;;;;;;;;80.50;67.00;;;;;3.34;31.29;100645.53;4989154;28;10024;-82
2022/03/13 00:18:35;;;;;;;;;74.67;59.00;;;;;3.37;31.10;100639.66;4956588;28;9759;-81
2022/03/13 00:21:05;;;;;;;;;77.50;64.25;;;;;3.39;30.87;100640.63;4972161;28;9276;-79
2022/03/13 00:23:35;;;;;;;;;74.67;60.67;;;;;3.41;30.93;100637.28;4973210;28;9482;-80
2022/03/13 00:26:05;;;;;;;;;74.50;61.25;;;;;3.42;30.67;100638.16;4960090;28;9407;-80
2022/03/13 00:28:33;;;;;;;;;79.50;64.25;;;;;3.43;30.60;100634.78;4954821;28;9656;-79
2022/03/13 00:31:03;;;;;;;;;73.33;59.00;;;;;3.44;30.74;100634.84;4972226;28;9695;-80
2022/03/13 00:33:34;;;;;;;;;74.67;61.00;;;;;3.44;30.38;100634.84;4924201;28;9472;-86
2022/03/13 00:36:03;;;;;;;;;83.25;64.00;;;;;3.46;30.41;100630.66;4988436;28;9523;-78
2022/03/13 00:38:32;;;;;;;;;73.00;58.67;;;;;3.46;30.48;100633.22;4971454;28;9581;-86
2022/03/13 00:41:01;;;;;;;;;71.67;59.00;;;;;3.47;30.41;100623.78;4952492;28;9322;-79
2022/03/13 00:43:29;;;;;;;;;66.00;52.67;;;;;3.47;29.86;100623.78;4952517;28;9484;-81
2022/03/13 00:45:58;;;;;;;;;77.33;61.67;;;;;3.48;29.93;100623.00;4969297;28;9453;-81
2022/03/13 00:48:28;;;;;;;;;67.33;54.00;;;;;3.49;29.70;100612.72;4967420;28;9508;-79
2022/03/13 00:51:00;;;;;;;;;71.00;55.33;;;;;3.50;29.64;100604.19;4952086;28;8960;-80
2022/03/13 00:53:29;;;;;;;;;59.00;46.00;;;;;3.51;29.08;100608.50;4943092;28;9041;-80
2022/03/13 00:55:58;;;;;;;;;52.75;44.75;;;;;3.50;29.44;100606.75;4989171;28;8900;-84
2022/03/13 00:58:27;;;;;;;;;61.75;51.50;;;;;3.48;29.32;100600.66;4989933;28;8873;-78
2022/03/13 01:00:58;;;;;;;;;59.75;51.00;;;;;3.50;28.95;100598.16;4972410;28;8849;-82
2022/03/13 01:03:32;;;;;;;;;62.25;49.75;;;;;3.50;28.85;100604.19;4972530;28;8890;-81
2022/03/13 01:06:03;;;;;;;;;61.75;48.00;;;;;3.54;29.47;100594.03;4988022;28;8865;-79
2022/03/13 01:08:31;;;;;;;;;53.50;49.00;;;;;3.52;29.21;100591.38;4989465;28;8991;-85
2022/03/13 01:11:01;;;;;;;;;66.00;53.67;;;;;3.47;29.18;100588.56;4968920;28;8859;-87
2022/03/13 01:13:31;;;;;;;;;65.00;52.33;;;;;3.47;29.15;100587.69;4988292;28;9108;-84
2022/03/13 01:16:11;;;;;;;;;78.75;65.50;;;;;3.36;29.70;100579.47;4955577;28;8962;-80
2022/03/13 01:18:43;;;;;;;;;84.67;65.67;;;;;3.40;29.48;100577.91;4971041;28;9754;-78
2022/03/13 01:21:14;;;;;;;;;89.75;69.25;;;;;3.40;30.22;100575.31;4954466;28;9332;-80
2022/03/13 01:23:59;;;;;;;;;101.50;77.25;;;;;3.22;31.39;100570.25;4974208;28;10545;-86
2022/03/13 01:26:37;;;;;;;;;90.00;70.75;;;;;3.27;30.56;100573.88;4991169;28;10742;-83
2022/03/13 01:29:09;;;;;;;;;99.50;75.00;;;;;3.26;31.29;100573.00;4973425;28;10054;-80
2022/03/13 01:31:40;;;;;;;;;111.25;86.75;;;;;3.10;32.27;100568.88;4970834;28;10681;-84
2022/03/13 01:34:27;;;;;;;;;94.25;75.75;;;;;2.99;31.69;100569.19;4988340;28;11136;-86
2022/03/13 01:36:57;;;;;;;;;91.75;71.25;;;;;3.03;31.43;100569.38;4970576;28;10377;-79
2022/03/13 01:39:26;;;;;;;;;113.00;94.75;;;;;2.98;33.14;100570.00;4972054;28;10177;-81
2022/03/13 01:41:58;;;;;;;;;103.25;81.75;;;;;2.88;33.15;100571.25;4971189;28;11280;-81
2022/03/13 01:44:27;;;;;;;;;98.25;76.00;;;;;2.83;32.71;100575.31;4951221;28;10809;-80
2022/03/13 01:46:56;;;;;;;;;69.67;56.00;;;;;2.83;31.24;100573.59;4969509;28;10555;-83
2022/03/13 01:49:26;;;;;;;;;76.67;60.00;;;;;2.85;30.75;100569.41;4968252;28;9185;-80
2022/03/13 01:51:54;;;;;;;;;57.25;47.75;;;;;2.79;30.44;100573.41;4984716;28;9436;-80
2022/03/13 01:54:25;;;;;;;;;59.75;50.25;;;;;2.59;30.72;100560.47;4985084;28;8865;-81
2022/03/13 01:56:53;;;;;;;;;71.50;57.00;;;;;2.41;30.96;100568.16;4988092;28;9027;-79
2022/03/13 01:59:22;;;;;;;;;49.00;46.25;;;;;2.50;30.78;100560.03;4989411;28;8858;-83
2022/03/13 02:01:52;;;;;;;;;62.50;52.75;;;;;2.62;31.29;100562.28;5007906;28;9729;-82
2022/03/13 02:04:25;;;;;;;;;43.50;40.25;;;;;2.56;30.29;100560.31;5008486;28;8898;-83
2022/03/13 02:06:58;;;;;;;;;48.50;42.00;;;;;2.62;30.41;100563.16;4974845;28;8889;-82
2022/03/13 02:09:28;;;;;;;;;63.00;51.00;;;;;2.75;30.57;100556.03;5006634;28;8863;-83
2022/03/13 02:11:58;;;;;;;;;70.00;56.33;;;;;2.82;30.73;100558.09;4992049;28;9161;-80
2022/03/13 02:14:27;;;;;;;;;79.00;63.67;;;;;2.91;31.12;100553.34;4947883;28;9219;-77
2022/03/13 02:16:55;;;;;;;;;67.67;56.67;;;;;2.96;30.56;100554.44;4978566;28;10259;-83
2022/03/13 02:19:24;;;;;;;;;81.50;66.50;;;;;2.93;31.02;100555.22;4994507;28;9100;-80
2022/03/13 02:21:55;;;;;;;;;79.50;65.50;;;;;2.88;31.27;100548.06;4946794;28;9654;-78
2022/03/13 02:24:28;;;;;;;;;84.00;68.50;;;;;2.84;32.09;100553.91;4994401;28;9639;-80
2022/03/13 02:27:00;;;;;;;;;78.00;64.33;;;;;2.91;31.47;100549.09;5011268;28;10030;-78
2022/03/13 02:29:29;;;;;;;;;57.75;50.50;;;;;2.97;30.76;100553.66;4977203;28;9511;-85
2022/03/13 02:32:00;;;;;;;;;50.75;44.50;;;;;3.00;30.01;100548.63;5004138;28;8876;-78
2022/03/13 02:34:29;;;;;;;;;49.75;45.00;;;;;3.03;29.88;100547.91;5005144;28;8889;-79
2022/03/13 02:37:01;;;;;;;;;46.25;42.25;;;;;3.09;29.98;100549.06;4980814;28;8871;-79
2022/03/13 02:39:37;;;;;;;;;56.25;49.25;;;;;3.16;30.01;100549.31;5000501;28;8895;-78
2022/03/13 02:42:08;;;;;;;;;74.00;59.00;;;;;3.19;30.33;100545.19;4985770;28;8910;-76
2022/03/13 02:44:37;;;;;;;;;85.50;63.50;;;;;3.23;30.77;100541.06;4984986;28;9467;-78
2022/03/13 02:47:07;;;;;;;;;70.33;58.33;;;;;3.25;30.60;100542.91;4970353;28;9773;-79
2022/03/13 02:49:36;;;;;;;;;75.67;61.67;;;;;3.28;30.59;100544.72;4987377;28;9379;-78
2022/03/13 02:52:07;;;;;;;;;74.33;60.33;;;;;3.27;30.88;100540.38;4973041;28;10045;-81
2022/03/13 02:54:37;;;;;;;;;70.00;57.67;;;;;3.29;30.64;100546.50;4979208;28;9353;-79
2022/03/13 02:57:06;;;;;;;;;66.33;53.33;;;;;3.28;30.49;100545.59;4975009;28;9009;-82
2022/03/13 02:59:35;;;;;;;;;72.50;58.25;;;;;3.25;30.58;100540.34;4992418;28;8967;-81
2022/03/13 03:02:04;;;;;;;;;68.25;56.50;;;;;3.27;30.83;100540.38;4966479;28;8930;-80
2022/03/13 03:04:33;;;;;;;;;85.25;67.25;;;;;3.12;31.15;100532.88;4972178;28;8874;-79
2022/03/13 03:07:04;;;;;;;;;110.25;92.50;;;;;3.06;34.22;100535.13;4955420;28;10180;-78
2022/03/13 03:09:35;;;;;;;;;104.00;84.50;;;;;3.03;33.96;100541.06;4954980;28;11270;-79
2022/03/13 03:12:06;;;;;;;;;105.50;85.50;;;;;3.05;33.99;100529.13;4971345;28;11351;-78
2022/03/13 03:14:35;;;;;;;;;77.00;64.00;;;;;3.05;32.71;100523.97;4970929;28;11155;-79
2022/03/13 03:17:05;;;;;;;;;71.67;58.67;;;;;3.05;31.76;100526.53;4972890;28;9826;-77
2022/03/13 03:19:34;;;;;;;;;66.67;55.67;;;;;3.05;31.24;100523.97;4965704;28;9280;-80
2022/03/13 03:22:03;;;;;;;;;51.50;44.75;;;;;3.07;31.41;100527.50;4992184;28;8981;-82
2022/03/13 03:24:32;;;;;;;;;62.25;50.75;;;;;3.04;30.80;100523.88;4990826;28;8857;-78
2022/03/13 03:27:01;;;;;;;;;60.25;51.75;;;;;3.05;30.78;100520.50;5007115;28;9683;-78
2022/03/13 03:29:31;;;;;;;;;63.50;52.75;;;;;3.07;30.81;100519.75;4974399;28;8899;-80
2022/03/13 03:32:02;;;;;;;;;69.67;56.67;;;;;3.12;31.26;100522.56;4974297;28;8891;-79
2022/03/13 03:34:31;;;;;;;;;68.50;51.50;;;;;3.15;30.83;100520.09;4972900;28;8961;-81
2022/03/13 03:37:02;;;;;;;;;68.75;50.00;;;;;3.17;30.92;100515.03;4969480;28;8875;-81
2022/03/13 03:39:32;;;;;;;;;63.00;51.33;;;;;3.17;31.11;100518.47;4969213;28;8937;-81
2022/03/13 03:42:02;;;;;;;;;68.00;52.25;;;;;3.16;30.77;100519.31;4953255;28;9121;-80
2022/03/13 03:44:32;;;;;;;;;73.75;54.50;;;;;3.18;31.09;100521.97;4976143;28;8881;-79
2022/03/13 03:47:01;;;;;;;;;68.25;51.75;;;;;3.17;31.13;100517.59;4972901;28;8943;-80
2022/03/13 03:49:30;;;;;;;;;63.50;50.25;;;;;3.17;31.23;100522.75;4956729;28;8962;-82
2022/03/13 03:51:58;;;;;;;;;59.50;50.50;;;;;3.21;31.12;100519.50;4972472;28;8865;-80
2022/03/13 03:54:27;;;;;;;;;61.00;52.25;;;;;3.20;31.05;100512.59;4971290;28;8874;-79
2022/03/13 03:56:56;;;;;;;;;58.00;51.25;;;;;3.18;31.08;100515.09;4940505;28;8837;-80
2022/03/13 03:59:24;;;;;;;;;62.25;51.75;;;;;3.19;30.87;100513.38;4909865;28;8882;-78
2022/03/13 04:01:54;;;;;;;;;65.50;54.50;;;;;3.21;30.95;100509.19;4956369;28;8872;-81
2022/03/13 04:04:23;;;;;;;;;56.25;46.50;;;;;3.22;30.53;100505.81;4956553;28;9047;-79
2022/03/13 04:06:53;;;;;;;;;52.75;44.75;;;;;3.22;30.31;100517.00;4956795;28;8988;-80
2022/03/13 04:09:22;;;;;;;;;44.50;40.75;;;;;3.23;30.22;100508.47;4956341;28;8896;-82
2022/03/13 04:11:52;;;;;;;;;44.75;40.75;;;;;3.23;30.35;100517.88;4955304;28;8845;-82
2022/03/13 04:14:21;;;;;;;;;49.25;46.25;;;;;3.23;30.50;100510.13;4971922;28;8915;-79
2022/03/13 04:16:52;;;;;;;;;64.75;51.50;;;;;3.24;30.82;100517.06;4959952;28;8844;-80
2022/03/13 04:19:26;;;;;;;;;66.33;54.67;;;;;3.25;30.72;100516.22;4989082;28;8864;-80
2022/03/13 04:21:54;;;;;;;;;69.33;57.00;;;;;3.24;30.92;100511.91;4989773;28;8953;-80
2022/03/13 04:24:24;;;;;;;;;56.75;48.50;;;;;3.22;31.01;100516.13;4989882;28;8965;-79
2022/03/13 04:26:52;;;;;;;;;63.00;51.50;;;;;3.22;31.08;100517.00;4969171;28;8886;-78
2022/03/13 04:29:23;;;;;;;;;63.75;52.25;;;;;3.21;31.02;100515.22;4954276;28;8982;-79
2022/03/13 04:31:54;;;;;;;;;47.25;44.25;;;;;3.22;30.36;100518.69;4985703;28;9625;-79
2022/03/13 04:34:24;;;;;;;;;54.50;48.50;;;;;3.22;30.32;100510.97;4985009;28;8865;-78
2022/03/13 04:36:54;;;;;;;;;46.00;40.25;;;;;3.24;30.25;100514.50;4971796;28;8873;-79
2022/03/13 04:39:22;;;;;;;;;51.25;46.50;;;;;3.25;30.34;100521.38;4972484;28;8987;-78
2022/03/13 04:41:51;;;;;;;;;45.25;43.50;;;;;3.26;30.42;100520.59;4972599;28;8898;-78
2022/03/13 04:44:20;;;;;;;;;64.25;50.75;;;;;3.26;30.74;100518.00;4923575;28;8970;-78
2022/03/13 04:46:49;;;;;;;;;47.25;42.75;;;;;3.25;30.90;100516.22;4988866;28;8857;-79
2022/03/13 04:49:17;;;;;;;;;50.00;44.00;;;;;3.25;30.52;100518.81;4972812;28;8966;-79
2022/03/13 04:51:48;;;;;;;;;62.50;53.50;;;;;3.16;30.83;100515.81;4988840;28;8879;-79
2022/03/13 04:54:18;;;;;;;;;54.75;47.25;;;;;3.17;30.55;100517.59;4977033;28;8873;-78
2022/03/13 04:56:47;;;;;;;;;56.50;48.75;;;;;3.21;30.89;100511.75;4978852;28;9054;-82
2022/03/13 04:59:16;;;;;;;;;64.50;50.25;;;;;3.21;30.74;100517.78;4990933;28;8865;-81
2022/03/13 05:01:46;;;;;;;;;51.25;44.75;;;;;3.20;30.24;100512.59;4987546;28;8957;-84
2022/03/13 05:04:16;;;;;;;;;64.50;53.75;;;;;3.19;30.42;100515.97;4971656;28;8901;-82
2022/03/13 05:06:45;;;;;;;;;90.50;72.00;;;;;3.11;31.77;100507.91;4954928;28;8987;-81
2022/03/13 05:09:15;;;;;;;;;88.75;67.75;;;;;3.04;31.96;100517.03;4970774;28;10082;-80
2022/03/13 05:11:43;;;;;;;;;84.00;66.75;;;;;3.04;31.89;100516.16;4981352;28;9787;-79
2022/03/13 05:14:12;;;;;;;;;54.25;47.75;;;;;3.03;31.01;100514.41;4988239;28;9754;-79
2022/03/13 05:16:40;;;;;;;;;87.00;69.50;;;;;3.06;31.67;100518.00;4988219;28;9022;-80
2022/03/13 05:19:09;;;;;;;;;77.67;63.33;;;;;3.09;31.69;100527.56;4935621;28;9809;-80
2022/03/13 05:21:42;;;;;;;;;78.00;65.00;;;;;3.12;31.72;100519.97;4953247;28;9194;-80
2022/03/13 05:24:11;;;;;;;;;76.00;59.00;;;;;3.11;31.24;100521.66;4936364;28;9603;-80
2022/03/13 05:26:42;;;;;;;;;77.67;63.67;;;;;3.11;31.62;100524.22;4982038;28;9238;-80
2022/03/13 05:29:11;;;;;;;;;77.00;62.67;;;;;3.13;31.33;100525.19;4972331;28;9522;-79
2022/03/13 05:31:40;;;;;;;;;86.25;68.25;;;;;3.16;32.25;100527.03;4972935;28;9444;-82
2022/03/13 05:34:14;;;;;;;;;90.00;71.25;;;;;3.20;32.38;100531.50;4957668;28;10395;-85
2022/03/13 05:36:43;;;;;;;;;75.00;62.67;;;;;3.18;32.37;100533.13;4969775;28;9803;-80
2022/03/13 05:39:12;;;;;;;;;63.67;52.00;;;;;3.16;31.49;100532.19;4970601;28;9400;-80
2022/03/13 05:41:43;;;;;;;;;76.67;61.00;;;;;3.12;31.25;100532.88;4971521;28;9199;-79
2022/03/13 05:44:14;;;;;;;;;71.67;58.67;;;;;3.05;31.23;100536.84;4987777;28;10028;-79
2022/03/13 05:46:42;;;;;;;;;68.00;55.00;;;;;3.04;31.17;100544.50;4972205;28;9869;-79
2022/03/13 05:49:11;;;;;;;;;75.00;57.33;;;;;3.08;31.46;100548.97;4992421;28;9104;-81
2022/03/13 05:51:42;;;;;;;;;82.33;64.67;;;;;3.13;31.74;100548.38;4994461;28;10743;-80
2022/03/13 05:54:14;;;;;;;;;33.67;29.67;;;;;3.19;30.99;100547.78;4957422;28;10098;-81
2022/03/13 05:56:45;;;;;;;;;68.75;55.00;;;;;3.22;30.81;100549.63;4940130;28;9121;-79
2022/03/13 05:59:14;;;;;;;;;72.67;57.00;;;;;3.26;31.28;100547.25;4972006;28;8887;-79
2022/03/13 06:01:43;;;;;;;;;74.75;62.25;;;;;3.28;31.52;100545.59;4955660;28;9433;-80
2022/03/13 06:04:11;;;;;;;;;56.67;50.00;;;;;3.32;30.99;100555.25;4971773;28;9681;-79
2022/03/13 06:06:41;;;;;;;;;86.67;68.33;;;;;3.35;31.54;100549.34;4971293;28;9895;-78
2022/03/13 06:09:10;;;;;;;;;79.00;64.00;;;;;3.30;31.77;100546.56;4971802;28;9679;-80
2022/03/13 06:11:38;;;;;;;;;88.25;68.75;;;;;3.23;32.26;100546.22;4988016;28;9502;-80
2022/03/13 06:14:08;;;;;;;;;98.75;77.25;;;;;3.26;32.49;100543.78;5000466;28;9939;-79
2022/03/13 06:16:38;;;;;;;;;108.00;86.75;;;;;3.31;33.51;100543.19;4990828;28;10650;-80
2022/03/13 06:19:07;;;;;;;;;117.75;104.00;;;;;3.31;34.46;100542.31;4990789;28;10988;-79
2022/03/13 06:21:35;;;;;;;;;83.50;68.50;;;;;3.25;33.02;100548.06;4975113;28;11627;-78
2022/03/13 06:24:05;;;;;;;;;134.00;114.25;;;;;3.29;34.95;100557.69;4974736;28;10866;-81
2022/03/13 06:26:34;;;;;;;;;130.25;117.00;;;;;3.32;35.42;100557.81;4991834;28;11677;-84
2022/03/13 06:29:03;;;;;;;;;127.00;113.50;;;;;3.31;35.40;100560.34;4991164;28;11681;-84
2022/03/13 06:31:33;;;;;;;;;118.25;107.75;;;;;3.35;35.19;100551.06;4991407;28;11650;-82
2022/03/13 06:34:02;;;;;;;;;107.50;90.50;;;;;3.38;34.37;100564.06;4974526;28;11749;-78
2022/03/13 06:36:30;;;;;;;;;107.25;86.50;;;;;3.46;33.68;100567.88;4990066;28;11301;-81
2022/03/13 06:39:00;;;;;;;;;112.00;98.50;;;;;3.56;34.96;100571.75;4974504;28;10747;-80
2022/03/13 06:41:28;;;;;;;;;95.75;75.75;;;;;3.62;33.35;100566.88;4973265;28;11728;-79
2022/03/13 06:43:57;;;;;;;;;85.50;62.25;;;;;3.69;33.19;100563.75;4989909;28;10731;-78
2022/03/13 06:46:26;;;;;;;;;95.25;75.00;;;;;3.79;32.35;100555.56;4990494;28;10708;-79
2022/03/13 06:48:56;;;;;;;;;101.25;80.25;;;;;3.91;32.75;100555.19;4975355;28;10453;-80
2022/03/13 06:51:25;;;;;;;;;111.00;100.00;;;;;3.92;34.26;100559.56;4974011;28;10564;-79
2022/03/13 06:53:53;;;;;;;;;114.25;95.25;;;;;4.01;34.22;100562.53;4991596;28;11736;-79
2022/03/13 06:56:22;;;;;;;;;119.25;102.75;;;;;4.15;34.82;100567.41;4985874;28;11738;-81
2022/03/13 06:58:52;;;;;;;;;115.00;104.25;;;;;4.32;34.26;100565.50;4969777;28;11604;-80
2022/03/13 07:01:24;;;;;;;;;111.50;93.25;;;;;4.46;33.14;100557.50;4986960;28;11678;-80
2022/03/13 07:03:52;;;;;;;;;104.50;86.00;;;;;4.62;33.67;100563.28;4977245;28;11600;-79
2022/03/13 07:06:23;;;;;;;;;114.50;106.75;;;;;4.75;33.66;100567.25;4956949;28;11625;-79
2022/03/13 07:08:52;;;;;;;;;146.25;127.50;;;;;4.87;35.35;100560.84;4973737;28;11613;-81
2022/03/13 07:11:21;;;;;;;;;146.75;134.50;;;;;5.05;35.53;100564.97;4972035;28;11686;-80
2022/03/13 07:13:50;;;;;;;;;159.25;137.25;;;;;5.19;34.57;100555.13;4973729;28;11782;-79
2022/03/13 07:16:19;;;;;;;;;120.50;103.75;;;;;5.31;34.23;100553.00;4973450;28;11675;-82
2022/03/13 07:18:48;;;;;;;;;118.50;107.50;;;;;5.44;33.98;100567.25;4973395;28;11802;-82
2022/03/13 07:21:17;;;;;;;;;137.00;122.75;;;;;5.57;34.24;100561.72;4989140;28;11607;-79
2022/03/13 07:23:47;;;;;;;;;121.50;110.75;;;;;5.71;33.04;100553.56;4972489;28;11675;-80
2022/03/13 07:26:15;;;;;;;;;112.25;101.25;;;;;5.84;32.43;100547.97;4988462;28;11688;-79
2022/03/13 07:28:44;;;;;;;;;101.25;83.00;;;;;5.95;32.53;100548.34;4992927;28;11630;-79
2022/03/13 07:31:13;;;;;;;;;90.50;71.25;;;;;6.07;31.11;100545.34;4973835;28;10837;-81
2022/03/13 07:33:42;;;;;;;;;96.50;75.00;;;;;6.18;30.91;100552.66;4978441;28;11277;-83
2022/03/13 07:36:10;;;;;;;;;97.25;79.25;;;;;6.32;31.27;100557.41;4990314;28;10443;-81
2022/03/13 07:38:39;;;;;;;;;96.00;74.50;;;;;6.46;30.44;100550.06;4994910;28;10603;-83
2022/03/13 07:41:11;;;;;;;;;92.00;71.00;;;;;6.59;29.99;100547.03;4971873;28;10466;-79
2022/03/13 07:43:39;;;;;;;;;91.25;71.25;;;;;6.73;29.89;100545.78;4982757;28;10111;-81
2022/03/13 07:46:08;;;;;;;;;100.00;81.50;;;;;6.82;28.70;100548.66;4982461;28;9998;-80
2022/03/13 07:48:38;;;;;;;;;80.67;63.67;;;;;6.97;28.97;100555.13;4965213;28;10905;-80
2022/03/13 07:51:07;;;;;;;;;77.33;63.33;;;;;7.10;27.88;100546.88;4972824;28;9417;-83
2022/03/13 07:53:39;;;;;;;;;75.33;61.33;;;;;7.14;28.02;100551.31;4986611;28;9738;-81
2022/03/13 07:56:09;;;;;;;;;84.00;65.00;;;;;7.28;27.72;100546.56;4988397;28;9561;-80
2022/03/13 07:58:37;;;;;;;;;79.00;63.75;;;;;7.43;28.37;100548.72;4970470;28;9643;-83
2022/03/13 08:01:06;;;;;;;;;84.25;66.25;;;;;7.56;27.54;100555.09;4968127;28;9812;-79
2022/03/13 08:03:37;;;;;;;;;77.50;63.00;;;;;7.69;28.30;100541.63;4972632;28;9585;-79
2022/03/13 08:06:06;;;;;;;;;89.25;68.75;;;;;7.74;27.16;100540.03;4986835;28;9997;-81
2022/03/13 08:08:39;;;;;;;;;101.00;86.75;;;;;7.86;27.46;100539.47;4960383;28;9926;-78
2022/03/13 08:11:09;;;;;;;;;78.75;64.00;;;;;7.97;27.39;100532.84;4959765;28;11240;-81
2022/03/13 08:13:38;;;;;;;;;86.50;65.75;;;;;8.07;26.80;100530.50;4982316;28;9968;-83
2022/03/13 08:16:07;;;;;;;;;79.75;63.50;;;;;8.10;26.26;100527.97;4967235;28;10028;-82
2022/03/13 08:18:36;;;;;;;;;75.00;61.33;;;;;8.12;26.09;100537.56;4965077;28;9567;-82
2022/03/13 08:21:05;;;;;;;;;78.25;63.25;;;;;8.17;26.74;100532.50;4954681;28;9571;-82
2022/03/13 08:23:34;;;;;;;;;74.00;61.50;;;;;8.24;26.91;100536.13;4953376;28;9747;-80
2022/03/13 08:26:04;;;;;;;;;90.25;69.25;;;;;8.30;26.75;100536.25;4974843;28;9655;-81
2022/03/13 08:28:34;;;;;;;;;118.00;107.75;;;;;8.35;27.70;100537.25;4972201;28;10198;-81
2022/03/13 08:31:03;;;;;;;;;119.00;107.75;;;;;8.10;27.92;100535.78;4989064;28;12508;-83
2022/03/13 08:33:32;;;;;;;;;170.50;149.25;;;;;7.59;27.79;100547.41;4939463;28;11611;-80
2022/03/13 08:36:01;;;;;;;;;98.25;82.75;;;;;7.49;27.47;100540.22;4904024;28;11569;-80
2022/03/13 08:38:30;;;;;;;;;51.67;45.00;;;;;7.51;25.93;100548.94;4958744;28;11287;-86
2022/03/13 08:40:58;;;;;;;;;83.75;66.50;;;;;7.66;26.74;100545.88;4952591;28;9001;-85
2022/03/13 08:43:27;;;;;;;;;43.75;40.75;;;;;7.76;25.56;100545.28;4970118;28;10293;-79
2022/03/13 08:45:59;;;;;;;;;48.50;41.00;;;;;7.78;24.34;100552.25;4972715;28;8850;-82
2022/03/13 08:48:28;;;;;;;;;41.25;37.50;;;;;7.74;23.46;100549.56;4946387;28;8864;-81
2022/03/13 08:50:58;;;;;;;;;39.50;36.50;;;;;7.96;24.12;100538.03;4931835;28;9662;-84
2022/03/13 08:53:26;;;;;;;;;42.00;39.00;;;;;8.00;23.22;100542.47;4969152;28;9638;-85
2022/03/13 08:55:55;;;;;;;;;48.00;41.75;;;;;8.12;23.21;100536.69;4928307;28;8852;-86
2022/03/13 08:58:24;;;;;;;;;37.75;36.25;;;;;8.14;23.90;100542.81;4956117;28;8853;-81
2022/03/13 09:00:53;;;;;;;;;35.75;33.00;;;;;8.34;23.53;100532.91;4935733;28;8920;-79
2022/03/13 09:03:26;;;;;;;;;33.50;30.50;;;;;8.48;22.87;100533.28;4938159;28;8969;-81
2022/03/13 09:05:56;;;;;;;;;44.50;38.25;;;;;8.51;23.55;100547.22;4947312;28;8986;-81
2022/03/13 09:08:26;;;;;;;;;36.50;33.50;;;;;8.57;23.05;100543.91;4974227;28;8887;-80
2022/03/13 09:10:55;;;;;;;;;37.50;37.00;;;;;8.67;22.85;100543.25;4987586;28;8970;-81
2022/03/13 09:13:23;;;;;;;;;36.50;35.75;;;;;8.76;22.91;100545.19;4963582;28;9631;-82
2022/03/13 09:15:53;;;;;;;;;42.00;39.00;;;;;8.73;22.64;100539.91;4976548;28;8873;-82
2022/03/13 09:18:21;;;;;;;;;49.00;41.00;;;;;8.93;23.13;100546.44;4988374;28;8892;-81
2022/03/13 09:20:52;;;;;;;;;70.00;56.00;;;;;8.98;22.58;100544.84;4986823;28;8889;-82
2022/03/13 09:23:21;;;;;;;;;43.75;40.25;;;;;9.07;22.10;100545.88;4960040;28;8875;-83
2022/03/13 09:25:50;;;;;;;;;32.50;31.00;;;;;9.18;21.79;100540.03;4945042;28;8906;-83
2022/03/13 09:28:19;;;;;;;;;65.50;53.50;;;;;9.16;21.47;100535.66;4953448;28;9032;-82
2022/03/13 09:30:48;;;;;;;;;72.00;57.00;;;;;9.20;21.90;100536.63;4936893;29;9024;-82
2022/03/13 09:33:17;;;;;;;;;47.50;40.75;;;;;9.30;22.03;100531.63;4934973;28;9267;-87
2022/03/13 09:35:46;;;;;;;;;12.00;7.25;;;;;9.37;21.26;100532.63;4933006;29;8874;-83
2022/03/13 09:38:17;;;;;;;;;35.25;35.00;;;;;9.43;21.21;100526.66;4966499;28;8902;-81
2022/03/13 09:40:46;;;;;;;;;41.50;37.50;;;;;9.24;21.45;100530.63;4937558;28;8845;-83
2022/03/13 09:43:15;;;;;;;;;39.50;36.75;;;;;9.31;22.28;100519.50;4926993;29;8885;-85
2022/03/13 09:45:44;;;;;;;;;54.75;42.50;;;;;9.28;22.54;100525.53;4900167;29;8870;-76
2022/03/13 09:48:15;;;;;;;;;44.00;38.50;;;;;9.28;22.40;100528.13;4930747;29;8928;-80
2022/03/13 09:50:44;;;;;;;;;44.00;38.50;;;;;9.38;23.02;100521.38;4946383;29;8878;-80
2022/03/13 09:53:14;;;;;;;;;46.50;41.50;;;;;9.45;23.53;100522.38;4930485;29;9099;-82
2022/03/13 09:55:44;;;;;;;;;51.00;42.75;;;;;9.51;22.02;100512.97;4952689;28;8860;-81
2022/03/13 09:58:13;;;;;;;;;50.00;43.00;;;;;9.52;22.02;100519.03;4972640;28;8865;-83
2022/03/13 10:00:42;;;;;;;;;45.00;39.75;;;;;9.56;22.04;100518.25;4953866;28;8943;-80
2022/03/13 10:03:13;;;;;;;;;53.25;45.50;;;;;9.69;21.25;100517.63;4953439;28;9113;-83
2022/03/13 10:05:44;;;;;;;;;40.50;31.25;;;;;9.78;21.25;100511.72;4962667;28;8877;-79
2022/03/13 10:08:13;;;;;;;;;64.50;51.00;;;;;9.78;21.00;100516.06;4950480;28;9836;-80
2022/03/13 10:10:45;;;;;;;;;38.25;37.25;;;;;9.87;20.70;100516.22;4964031;28;8872;-80
2022/03/13 10:13:16;;;;;;;;;47.00;41.25;;;;;9.87;19.72;100501.47;4993529;28;8846;-80
2022/03/13 10:15:47;;;;;;;;;46.75;39.75;;;;;9.88;20.02;100507.56;4996562;28;8874;-82
2022/03/13 10:18:18;;;;;;;;;42.50;39.25;;;;;9.82;20.15;100508.31;4968624;28;8864;-79
2022/03/13 10:20:49;;;;;;;;;42.25;39.25;;;;;9.88;20.57;100504.94;4966615;28;9671;-81
2022/03/13 10:23:19;;;;;;;;;40.00;36.25;;;;;9.98;20.52;100514.69;5000298;28;8859;-82
2022/03/13 10:25:52;;;;;;;;;51.75;43.50;;;;;9.93;20.77;100506.78;4989191;28;8902;-80
2022/03/13 10:28:23;;;;;;;;;56.25;44.25;;;;;9.98;20.98;100508.59;5001655;28;9678;-84
2022/03/13 10:31:07;;;;;;;;;57.00;46.25;;;;;10.05;21.49;100511.31;4972323;28;9608;-82
2022/03/13 10:34:00;;;;;;;;;49.75;44.00;;;;;10.27;21.35;100507.34;4987352;28;8975;-80
2022/03/13 10:36:35;;;;;;;;;46.75;41.25;;;;;10.34;20.64;100497.94;4964481;28;8882;-82
2022/03/13 10:39:11;;;;;;;;;48.50;40.25;;;;;10.31;19.61;100511.78;4990001;28;8866;-80
2022/03/13 10:41:45;;;;;;;;;48.00;40.75;;;;;10.04;19.92;100500.91;4976950;28;8932;-79
2022/03/13 10:44:18;;;;;;;;;50.00;43.50;;;;;10.14;20.74;100495.84;4981922;28;8977;-80
2022/03/13 10:46:53;;;;;;;;;45.75;40.25;;;;;10.20;20.28;100491.59;4975029;28;8995;-82
2022/03/13 10:49:42;;;;;;;;;48.50;42.00;;;;;10.27;20.40;100481.28;4986106;28;8843;-82
2022/03/13 10:52:26;;;;;;;;;44.50;40.00;;;;;10.51;20.05;100486.03;4979007;28;8999;-82
2022/03/13 10:54:57;;;;;;;;;48.75;41.25;;;;;10.69;20.84;100481.94;4994407;28;8911;-79
2022/03/13 10:57:27;;;;;;;;;49.75;40.00;;;;;10.88;19.57;100483.94;4974253;28;8860;-84
2022/03/13 11:00:15;;;;;;;;;48.75;42.25;;;;;11.04;19.88;100471.97;4992211;28;8873;-82
2022/03/13 11:02:45;;;;;;;;;46.50;36.75;;;;;11.00;20.03;100479.72;4967273;28;8855;-84
2022/03/13 11:05:13;;;;;;;;;44.25;39.50;;;;;11.10;19.24;100479.00;4983074;28;8865;-80
2022/03/13 11:07:43;;;;;;;;;31.25;28.25;;;;;11.19;19.21;100473.00;4990152;28;8881;-84
2022/03/13 11:10:12;;;;;;;;;47.00;39.25;;;;;11.30;18.70;100464.47;4990292;28;8884;-85
2022/03/13 11:12:43;;;;;;;;;50.75;42.75;;;;;11.42;19.20;100466.31;4923001;28;8860;-80
2022/03/13 11:15:12;;;;;;;;;39.25;35.50;;;;;11.51;19.12;100463.81;4973222;28;8856;-80
2022/03/13 11:17:43;;;;;;;;;45.75;39.50;;;;;11.61;18.73;100454.31;4990548;28;8899;-82
2022/03/13 11:20:13;;;;;;;;;41.00;38.00;;;;;11.63;18.28;100459.56;4989919;28;8868;-83
2022/03/13 11:22:42;;;;;;;;;47.50;40.00;;;;;11.83;18.21;100454.50;4966739;28;8897;-82
2022/03/13 11:25:12;;;;;;;;;43.75;36.50;;;;;11.84;17.88;100459.75;4956730;28;9025;-82
2022/03/13 11:27:43;;;;;;;;;46.75;39.75;;;;;11.94;17.42;100458.13;4985602;28;8861;-82
2022/03/13 11:30:15;;;;;;;;;35.50;33.25;;;;;12.15;17.18;100451.34;4989314;28;8887;-82
2022/03/13 11:32:48;;;;;;;;;32.00;29.00;;;;;12.40;16.98;100445.44;5005473;28;9109;-81
2022/03/13 11:35:21;;;;;;;;;38.00;35.50;;;;;12.37;17.17;100442.78;4972758;28;8864;-82